Time;durP1;ratioP1;P1;durP2;ratioP2;P2;SDS_P1;SDS_P2;PMS_P1;PMS_P2;Temp;Humidity;BMP_temperature;BMP_pressure;BME280_temperature;BME280_humidity;BME280_pressure;Samples;Min_cycle;Max_cycle;Signal;HPM_P1;HPM_P2
2023/03/27 00:01:13;;;;;;;5.20;1.80;;;4.30;99.90;;;;;;4935130;28;98545;-74
2023/03/27 00:03:41;;;;;;;2.90;0.98;;;4.30;99.90;;;;;;4952563;28;99434;-74
2023/03/27 00:06:15;;;;;;;5.90;1.58;;;4.20;99.90;;;;;;4966992;28;99058;-74
2023/03/27 00:08:46;;;;;;;7.45;1.70;;;4.30;99.90;;;;;;4953132;28;98500;-74
2023/03/27 00:11:15;;;;;;;4.53;1.58;;;4.20;99.90;;;;;;4955655;28;97774;-74
2023/03/27 00:13:43;;;;;;;5.40;1.70;;;4.20;99.90;;;;;;4955591;28;99412;-74
2023/03/27 00:16:15;;;;;;;8.48;1.40;;;4.10;99.90;;;;;;4955531;28;99036;-74
2023/03/27 00:18:43;;;;;;;6.78;1.20;;;4.10;99.90;;;;;;4937563;28;99427;-74
2023/03/27 00:21:10;;;;;;;4.65;1.52;;;4.10;99.90;;;;;;4955242;28;98512;-74
2023/03/27 00:23:37;;;;;;;6.75;1.30;;;4.00;99.90;;;;;;4953818;28;102461;-74
2023/03/27 00:26:04;;;;;;;6.43;1.50;;;4.00;99.90;;;;;;4953114;28;99054;-75
2023/03/27 00:28:32;;;;;;;6.47;1.13;;;3.90;99.90;;;;;;4954411;28;98602;-74
2023/03/27 00:31:00;;;;;;;8.43;1.50;;;3.90;99.90;;;;;;4970287;28;98640;-74
2023/03/27 00:33:27;;;;;;;3.63;1.70;;;3.90;99.90;;;;;;4953756;28;101886;-74
2023/03/27 00:35:54;;;;;;;5.32;1.17;;;3.80;99.90;;;;;;4954153;28;101675;-74
2023/03/27 00:38:23;;;;;;;6.60;1.55;;;3.80;99.90;;;;;;4953661;28;98609;-74
2023/03/27 00:40:53;;;;;;;6.82;1.60;;;3.80;99.90;;;;;;4954068;28;99045;-74
2023/03/27 00:43:23;;;;;;;6.97;1.40;;;3.70;99.90;;;;;;4952948;28;102639;-75
2023/03/27 00:45:54;;;;;;;13.50;1.70;;;3.70;99.90;;;;;;4969602;28;99740;-75
2023/03/27 00:48:23;;;;;;;9.32;1.67;;;3.70;99.90;;;;;;4969901;28;98587;-74
2023/03/27 00:50:51;;;;;;;6.43;1.80;;;3.60;99.90;;;;;;4970111;28;98590;-74
2023/03/27 00:53:23;;;;;;;11.25;2.08;;;3.60;99.90;;;;;;4952962;28;102446;-74
2023/03/27 00:55:53;;;;;;;7.70;1.60;;;3.60;99.90;;;;;;4953263;28;101568;-74
2023/03/27 00:58:45;;;;;;;6.82;1.58;;;3.60;99.90;;;;;;4954999;28;98640;-74
2023/03/27 01:01:14;;;;;;;7.43;1.40;;;3.70;99.90;;;;;;4953799;28;97898;-74
2023/03/27 01:03:45;;;;;;;4.78;1.10;;;3.60;99.90;;;;;;4953230;28;101531;-74
2023/03/27 01:06:15;;;;;;;9.68;1.60;;;3.60;99.90;;;;;;4954593;28;99034;-74
2023/03/27 01:08:45;;;;;;;5.75;1.30;;;3.60;99.90;;;;;;4953389;28;99318;-74
2023/03/27 01:11:50;;;;;;;8.80;1.75;;;3.60;99.90;;;;;;4953162;28;98584;-74
2023/03/27 01:14:28;;;;;;;3.70;1.38;;;3.60;99.90;;;;;;4952819;28;101803;-75
2023/03/27 01:16:59;;;;;;;4.65;1.50;;;3.50;99.90;;;;;;4953140;28;101542;-74
2023/03/27 01:19:58;;;;;;;5.93;1.40;;;3.50;99.90;;;;;;4954503;28;98451;-74
2023/03/27 01:22:38;;;;;;;7.55;1.60;;;3.50;99.90;;;;;;4910749;28;98611;-74
2023/03/27 01:25:33;;;;;;;6.63;1.60;;;3.40;99.90;;;;;;4952460;28;101964;-74
2023/03/27 01:28:13;;;;;;;3.72;1.35;;;3.40;99.90;;;;;;4914655;28;101607;-74
2023/03/27 01:30:51;;;;;;;6.20;1.70;;;3.40;99.90;;;;;;4914589;28;99012;-74
2023/03/27 01:33:18;;;;;;;9.27;1.35;;;3.30;99.90;;;;;;4914265;28;98831;-74
2023/03/27 01:35:48;;;;;;;3.90;1.27;;;3.30;99.90;;;;;;4913284;28;102307;-74
2023/03/27 01:38:36;;;;;;;8.82;1.50;;;3.30;99.90;;;;;;4915084;28;99881;-74
2023/03/27 01:41:11;;;;;;;3.70;1.23;;;3.30;99.90;;;;;;4930677;28;99039;-74
2023/03/27 01:43:49;;;;;;;5.85;1.10;;;3.30;99.90;;;;;;4914186;28;98591;-74
2023/03/27 01:46:33;;;;;;;5.82;1.45;;;3.30;99.90;;;;;;4929602;28;101825;-74
2023/03/27 01:49:26;;;;;;;5.93;1.17;;;3.40;99.90;;;;;;4915415;28;99041;-74
2023/03/27 01:52:00;;;;;;;6.55;1.25;;;3.40;99.90;;;;;;4914162;28;98581;-74
2023/03/27 01:54:32;;;;;;;6.70;0.95;;;3.50;99.90;;;;;;4914201;28;97911;-74
2023/03/27 01:57:07;;;;;;;3.40;1.05;;;3.50;99.90;;;;;;4915211;28;99343;-74
2023/03/27 01:59:38;;;;;;;7.45;1.30;;;3.50;99.90;;;;;;4913534;28;101476;-74
2023/03/27 02:02:30;;;;;;;4.07;1.30;;;3.50;99.90;;;;;;4913717;28;99369;-74
2023/03/27 02:05:04;;;;;;;4.18;1.10;;;3.60;99.90;;;;;;4915189;28;98513;-74
2023/03/27 02:07:43;;;;;;;8.10;1.45;;;3.50;99.90;;;;;;4929798;28;101254;-74
2023/03/27 02:10:16;;;;;;;7.55;1.40;;;3.50;99.90;;;;;;4913435;28;101710;-74
2023/03/27 02:12:55;;;;;;;4.25;1.10;;;3.50;99.90;;;;;;4913763;28;98638;-74
2023/03/27 02:15:29;;;;;;;4.82;0.90;;;3.50;99.90;;;;;;4915003;28;98405;-74
2023/03/27 02:18:05;;;;;;;8.13;1.33;;;3.50;99.90;;;;;;4929418;28;101890;-74
2023/03/27 02:20:34;;;;;;;6.45;1.30;;;3.50;99.90;;;;;;4913417;28;101391;-74
2023/03/27 02:23:01;;;;;;;5.53;1.25;;;3.50;99.90;;;;;;4913759;28;99089;-74
2023/03/27 02:25:32;;;;;;;3.40;1.25;;;3.50;99.90;;;;;;4919091;28;98637;-74
2023/03/27 02:28:18;;;;;;;5.00;1.23;;;3.50;99.90;;;;;;4967742;28;102411;-74
2023/03/27 02:31:12;;;;;;;7.50;1.58;;;3.40;99.90;;;;;;4951935;28;101644;-74
2023/03/27 02:34:20;;;;;;;4.10;0.95;;;3.50;99.90;;;;;;4932487;28;98563;-74
2023/03/27 02:37:00;;;;;;;5.97;1.52;;;3.40;99.90;;;;;;4952363;28;98592;-74
2023/03/27 02:40:17;;;;;;;3.70;0.88;;;3.40;99.90;;;;;;4965300;28;99934;-74
2023/03/27 02:43:15;;;;;;;2.88;0.93;;;3.40;99.90;;;;;;4951701;28;101130;-74
2023/03/27 02:45:46;;;;;;;6.88;1.50;;;3.40;99.90;;;;;;4900914;28;98784;-74
2023/03/27 02:48:43;;;;;;;3.83;1.20;;;3.50;99.90;;;;;;4952498;28;98458;-74
2023/03/27 02:51:37;;;;;;;3.55;0.98;;;3.70;99.90;;;;;;4967855;28;101580;-74
2023/03/27 02:54:13;;;;;;;4.43;1.17;;;3.70;99.90;;;;;;4951698;28;101332;-74
2023/03/27 02:56:50;;;;;;;5.45;1.25;;;3.80;99.90;;;;;;4951638;28;99640;-74
2023/03/27 02:59:34;;;;;;;6.18;1.42;;;3.80;99.90;;;;;;4968147;28;98589;-74
2023/03/27 03:02:08;;;;;;;5.78;1.10;;;3.80;99.90;;;;;;4967485;28;101578;-74
2023/03/27 03:04:55;;;;;;;5.35;1.40;;;3.80;99.90;;;;;;4951451;28;101151;-74
2023/03/27 03:07:27;;;;;;;4.95;1.23;;;3.80;99.90;;;;;;4953100;28;98442;-74
2023/03/27 03:09:54;;;;;;;4.00;1.02;;;3.80;99.90;;;;;;4968190;28;98534;-74
2023/03/27 03:12:22;;;;;;;3.35;1.45;;;3.80;99.90;;;;;;4967539;28;99306;-74
2023/03/27 03:14:49;;;;;;;4.20;1.10;;;3.80;99.90;;;;;;4951831;28;101571;-74
2023/03/27 03:17:16;;;;;;;9.80;1.77;;;3.80;99.90;;;;;;4953212;28;99212;-74
2023/03/27 03:19:44;;;;;;;2.33;1.08;;;3.80;99.90;;;;;;4951627;28;98530;-74
2023/03/27 03:22:11;;;;;;;5.15;1.20;;;3.80;99.90;;;;;;4934659;28;102878;-74
2023/03/27 03:24:42;;;;;;;4.13;1.25;;;3.70;99.90;;;;;;4952825;28;99051;-74
2023/03/27 03:27:19;;;;;;;7.93;1.38;;;3.70;99.90;;;;;;4951351;28;98818;-74
2023/03/27 03:30:03;;;;;;;3.53;1.40;;;3.70;99.90;;;;;;4951740;28;98620;-74
2023/03/27 03:32:35;;;;;;;6.22;1.30;;;3.70;99.90;;;;;;4967243;28;101345;-74
2023/03/27 03:35:07;;;;;;;5.28;1.50;;;3.70;99.90;;;;;;4951143;28;101053;-74
2023/03/27 03:37:37;;;;;;;7.18;1.88;;;3.60;99.90;;;;;;4951463;28;99219;-74
2023/03/27 03:40:10;;;;;;;4.43;1.30;;;3.60;99.90;;;;;;4951984;28;97856;-74
2023/03/27 03:42:46;;;;;;;7.93;1.60;;;3.50;99.90;;;;;;4950770;28;100531;-74
2023/03/27 03:45:16;;;;;;;4.50;1.33;;;3.40;99.90;;;;;;4970163;28;101347;-74
2023/03/27 03:47:44;;;;;;;7.40;1.55;;;3.40;99.90;;;;;;4954240;28;99362;-74
2023/03/27 03:50:12;;;;;;;6.97;1.40;;;3.30;99.90;;;;;;4954661;28;98552;-74
2023/03/27 03:52:40;;;;;;;8.73;1.02;;;3.30;99.90;;;;;;4954062;28;101661;-74
2023/03/27 03:55:10;;;;;;;4.65;1.40;;;3.20;99.90;;;;;;4954309;28;101422;-74
2023/03/27 03:57:37;;;;;;;5.70;1.35;;;3.30;99.90;;;;;;4955889;28;98438;-74
2023/03/27 04:00:11;;;;;;;5.38;1.13;;;3.30;99.90;;;;;;4954913;28;98659;-74
2023/03/27 04:02:50;;;;;;;6.40;1.60;;;3.40;99.90;;;;;;4954056;28;101715;-74
2023/03/27 04:05:18;;;;;;;6.13;1.52;;;3.40;99.90;;;;;;4954715;28;101653;-74
2023/03/27 04:07:50;;;;;;;3.75;1.30;;;3.40;99.90;;;;;;4954480;28;98585;-74
2023/03/27 04:10:23;;;;;;;3.45;1.10;;;3.50;99.90;;;;;;4954476;28;98704;-74
2023/03/27 04:12:51;;;;;;;5.88;1.50;;;3.40;99.90;;;;;;4953445;28;102712;-74
2023/03/27 04:15:27;;;;;;;5.05;1.17;;;3.50;99.90;;;;;;4954106;28;102194;-74
2023/03/27 04:18:23;;;;;;;3.40;1.40;;;3.40;99.90;;;;;;4957522;28;98567;-74
2023/03/27 04:20:53;;;;;;;6.82;1.33;;;3.30;99.90;;;;;;4954168;28;98556;-74
2023/03/27 04:23:20;;;;;;;4.63;1.85;;;3.30;99.90;;;;;;4954051;28;101755;-74
2023/03/27 04:25:47;;;;;;;5.25;1.50;;;3.20;99.90;;;;;;4953484;28;101019;-74
2023/03/27 04:28:20;;;;;;;3.45;1.33;;;3.20;99.90;;;;;;4954302;28;98925;-74
2023/03/27 04:30:53;;;;;;;5.53;1.33;;;3.30;99.90;;;;;;4954269;28;97893;-74
2023/03/27 04:33:45;;;;;;;9.27;1.40;;;3.30;99.90;;;;;;4952708;28;98785;-74
2023/03/27 04:36:44;;;;;;;5.10;1.30;;;3.40;99.90;;;;;;4931673;28;98878;-74
2023/03/27 04:39:15;;;;;;;3.85;1.23;;;3.40;99.90;;;;;;4953545;28;99458;-75
2023/03/27 04:41:49;;;;;;;5.50;1.40;;;3.40;99.90;;;;;;4953788;28;98602;-75
2023/03/27 04:44:17;;;;;;;7.97;1.60;;;3.40;99.90;;;;;;4955150;28;99341;-75
2023/03/27 04:46:48;;;;;;;5.13;1.63;;;3.40;99.90;;;;;;4953362;28;101399;-75
2023/03/27 04:49:19;;;;;;;4.68;1.30;;;3.40;99.90;;;;;;4970344;28;99045;-75
2023/03/27 04:51:59;;;;;;;8.35;1.42;;;3.40;99.90;;;;;;4953831;28;98586;-75
2023/03/27 04:54:30;;;;;;;5.45;1.58;;;3.30;99.90;;;;;;4953373;28;101713;-75
2023/03/27 04:57:00;;;;;;;5.68;1.42;;;3.30;99.90;;;;;;4937220;28;101643;-75
2023/03/27 04:59:32;;;;;;;5.10;2.00;;;3.30;99.90;;;;;;4969901;28;99055;-75
2023/03/27 05:02:17;;;;;;;5.15;1.67;;;3.30;99.90;;;;;;4954079;28;98547;-75
2023/03/27 05:04:50;;;;;;;7.25;2.05;;;3.40;99.90;;;;;;4952610;28;102273;-75
2023/03/27 05:07:18;;;;;;;3.97;1.58;;;3.40;99.90;;;;;;4953272;28;102231;-75
2023/03/27 05:09:46;;;;;;;9.63;1.88;;;3.40;99.90;;;;;;4953324;28;98660;-75
2023/03/27 05:12:13;;;;;;;6.78;1.80;;;3.40;99.90;;;;;;4969753;28;99067;-75
2023/03/27 05:14:52;;;;;;;4.53;1.77;;;3.30;99.90;;;;;;4966970;28;101631;-74
2023/03/27 05:17:33;;;;;;;10.90;2.20;;;3.30;99.90;;;;;;4953168;28;100881;-74
2023/03/27 05:20:00;;;;;;;8.02;2.17;;;3.20;99.90;;;;;;4936862;28;98746;-74
2023/03/27 05:22:30;;;;;;;9.15;1.83;;;3.20;99.90;;;;;;4938256;28;97817;-74
2023/03/27 05:25:07;;;;;;;3.35;1.40;;;3.20;99.90;;;;;;4952543;28;101621;-74
2023/03/27 05:27:34;;;;;;;5.32;1.50;;;3.20;99.90;;;;;;4936878;28;101726;-75
2023/03/27 05:30:01;;;;;;;7.57;1.45;;;3.10;99.90;;;;;;4952452;28;99345;-75
2023/03/27 05:32:28;;;;;;;5.78;1.50;;;3.20;99.90;;;;;;4936976;28;98635;-75
2023/03/27 05:35:27;;;;;;;5.78;1.08;;;3.20;99.90;;;;;;4946929;28;99971;-74
2023/03/27 05:37:56;;;;;;;3.97;1.27;;;3.20;99.90;;;;;;4969047;28;101371;-74
2023/03/27 05:40:46;;;;;;;3.95;1.50;;;3.20;99.90;;;;;;4958051;28;98545;-74
2023/03/27 05:43:16;;;;;;;4.30;1.58;;;3.20;99.90;;;;;;4953002;28;98539;-74
2023/03/27 05:45:43;;;;;;;5.07;1.42;;;3.20;99.90;;;;;;4968490;28;101748;-74
2023/03/27 05:48:10;;;;;;;6.97;1.55;;;3.20;99.90;;;;;;4952711;28;101389;-74
2023/03/27 05:50:40;;;;;;;6.65;1.48;;;3.20;99.90;;;;;;4952871;28;99272;-74
2023/03/27 05:53:21;;;;;;;9.15;2.03;;;3.10;99.90;;;;;;4952965;28;99523;-74
2023/03/27 05:56:20;;;;;;;10.18;1.67;;;3.10;99.90;;;;;;4950424;28;100870;-74
2023/03/27 05:58:52;;;;;;;4.53;1.83;;;3.10;99.90;;;;;;4952216;28;102314;-74
2023/03/27 06:01:21;;;;;;;6.05;1.95;;;3.10;99.90;;;;;;4969282;28;98820;-74
2023/03/27 06:03:54;;;;;;;7.00;1.48;;;3.10;99.90;;;;;;4952729;28;98758;-74
2023/03/27 06:06:28;;;;;;;5.22;1.58;;;3.10;99.90;;;;;;4952073;28;100256;-74
2023/03/27 06:08:58;;;;;;;5.13;1.70;;;3.10;99.90;;;;;;4951083;28;101829;-74
2023/03/27 06:11:26;;;;;;;6.80;1.38;;;3.10;99.90;;;;;;4952764;28;99118;-74
2023/03/27 06:13:55;;;;;;;5.32;1.75;;;3.10;99.90;;;;;;4952315;28;98041;-74
2023/03/27 06:16:34;;;;;;;7.10;1.50;;;3.10;99.90;;;;;;4952325;28;101635;-74
2023/03/27 06:19:22;;;;;;;4.88;1.50;;;3.20;99.90;;;;;;4953852;28;98624;-74
2023/03/27 06:21:51;;;;;;;3.60;1.23;;;3.40;99.90;;;;;;4968293;28;99332;-74
2023/03/27 06:24:18;;;;;;;5.18;1.52;;;3.50;99.90;;;;;;4952443;28;98708;-74
2023/03/27 06:26:45;;;;;;;9.45;1.50;;;3.60;99.90;;;;;;4967671;28;101682;-74
2023/03/27 06:29:12;;;;;;;6.45;1.30;;;3.70;99.90;;;;;;4952385;28;101053;-74
2023/03/27 06:31:45;;;;;;;4.60;1.20;;;4.10;99.90;;;;;;4936962;28;98655;-74
2023/03/27 06:34:17;;;;;;;3.33;0.90;;;4.60;99.90;;;;;;4967598;28;98624;-74
2023/03/27 06:36:58;;;;;;;3.47;1.05;;;5.20;99.90;;;;;;4936686;28;101797;-74
2023/03/27 06:39:27;;;;;;;3.15;0.98;;;5.90;99.90;;;;;;4952268;28;101237;-74
2023/03/27 06:41:55;;;;;;;2.63;1.10;;;6.60;99.90;;;;;;4968218;28;98585;-75
2023/03/27 06:44:26;;;;;;;4.10;1.30;;;7.20;99.90;;;;;;4952222;28;99096;-75
2023/03/27 06:47:24;;;;;;;2.30;0.82;;;7.80;99.90;;;;;;4951340;28;101288;-75
2023/03/27 06:50:09;;;;;;;2.85;1.00;;;8.20;99.90;;;;;;4952221;28;99294;-75
2023/03/27 06:52:36;;;;;;;2.50;0.90;;;8.50;99.90;;;;;;4951859;28;98823;-75
2023/03/27 06:55:21;;;;;;;2.55;1.08;;;8.70;99.90;;;;;;4937903;28;98736;-75
2023/03/27 06:57:54;;;;;;;1.95;0.73;;;8.80;99.90;;;;;;4951565;28;101352;-75
2023/03/27 07:00:25;;;;;;;2.60;0.95;;;9.00;99.90;;;;;;4952739;28;99289;-75
2023/03/27 07:03:13;;;;;;;4.85;1.30;;;9.10;99.90;;;;;;4967803;28;99054;-75
2023/03/27 07:05:59;;;;;;;4.35;1.17;;;9.20;99.90;;;;;;4952168;28;97837;-75
2023/03/27 07:08:32;;;;;;;2.75;1.00;;;9.20;99.90;;;;;;4951603;28;101165;-75
2023/03/27 07:11:02;;;;;;;5.82;1.48;;;9.10;99.90;;;;;;4935148;28;101715;-75
2023/03/27 07:13:33;;;;;;;3.15;0.98;;;9.10;99.90;;;;;;4967952;28;99319;-75
2023/03/27 07:16:04;;;;;;;1.73;0.80;;;9.20;99.90;;;;;;4967933;28;98558;-75
2023/03/27 07:18:32;;;;;;;4.88;1.00;;;9.10;99.90;;;;;;4951800;28;101539;-75
2023/03/27 07:20:59;;;;;;;4.28;1.45;;;9.00;99.90;;;;;;4954723;28;101316;-75
2023/03/27 07:23:26;;;;;;;4.25;1.45;;;8.90;99.90;;;;;;4954917;28;98479;-75
2023/03/27 07:26:02;;;;;;;4.80;1.50;;;9.00;99.90;;;;;;4954746;28;98563;-75
2023/03/27 07:28:50;;;;;;;3.75;1.40;;;9.30;99.90;;;;;;4956038;28;100044;-75
2023/03/27 07:31:19;;;;;;;1.92;1.40;;;9.90;99.90;;;;;;4954744;28;101576;-75
2023/03/27 07:34:03;;;;;;;3.97;1.58;;;10.40;99.90;;;;;;4954950;28;98722;-75
2023/03/27 07:37:00;;;;;;;4.22;1.70;;;10.80;99.90;;;;;;4967118;28;98652;-75
2023/03/27 07:39:28;;;;;;;5.60;2.53;;;11.30;99.90;;;;;;4954281;28;102494;-75
2023/03/27 07:41:55;;;;;;;2.45;1.88;;;11.80;99.30;;;;;;4954225;28;101787;-75
2023/03/27 07:44:42;;;;;;;5.00;2.13;;;12.20;98.10;;;;;;4955042;28;98642;-75
2023/03/27 07:47:10;;;;;;;2.75;2.42;;;12.80;97.90;;;;;;4970881;28;98583;-75
2023/03/27 07:49:37;;;;;;;4.85;1.27;;;13.50;97.40;;;;;;4954521;28;101617;-76
2023/03/27 07:52:07;;;;;;;2.13;0.80;;;14.00;96.10;;;;;;4954190;28;101254;-75
2023/03/27 07:54:42;;;;;;;5.10;1.27;;;14.00;95.60;;;;;;4940947;28;98729;-75
2023/03/27 07:57:12;;;;;;;5.90;1.08;;;13.80;95.30;;;;;;4954800;28;97851;-75
2023/03/27 08:00:00;;;;;;;6.13;1.20;;;13.20;95.30;;;;;;4955100;28;100304;-75
2023/03/27 08:02:44;;;;;;;5.13;1.27;;;12.50;95.80;;;;;;4954244;28;98644;-75
2023/03/27 08:05:13;;;;;;;5.10;1.00;;;11.90;96.90;;;;;;4938053;28;99320;-75
2023/03/27 08:07:47;;;;;;;6.38;5.00;;;11.30;97.50;;;;;;4954383;28;98506;-75
2023/03/27 08:10:28;;;;;;;4.60;1.55;;;11.00;98.00;;;;;;4954232;28;100350;-75
2023/03/27 08:12:58;;;;;;;4.68;4.25;;;10.90;98.20;;;;;;4953912;28;101451;-75
2023/03/27 08:15:25;;;;;;;10.57;9.63;;;11.10;98.60;;;;;;4953955;28;98722;-75
2023/03/27 08:17:53;;;;;;;9.60;9.10;;;11.50;98.30;;;;;;4954568;28;98617;-75
2023/03/27 08:20:24;;;;;;;18.27;17.35;;;11.90;98.10;;;;;;4953564;28;101210;-75
2023/03/27 08:22:51;;;;;;;13.93;13.25;;;11.90;96.70;;;;;;4937585;28;101428;-75
2023/03/27 08:25:33;;;;;;;4.35;1.30;;;12.20;96.50;;;;;;4967212;28;98635;-75
2023/03/27 08:28:05;;;;;;;36.95;35.35;;;11.80;94.90;;;;;;4953981;28;98524;-75
2023/03/27 08:30:32;;;;;;;44.58;42.42;;;12.00;96.00;;;;;;4968087;28;102792;-75
2023/03/27 08:33:01;;;;;;;24.77;23.63;;;11.90;95.40;;;;;;4969090;28;102303;-75
2023/03/27 08:35:28;;;;;;;66.50;63.70;;;12.30;95.50;;;;;;4969761;28;98691;-75
2023/03/27 08:37:56;;;;;;;3.03;1.08;;;12.20;94.80;;;;;;4953478;28;98508;-75
2023/03/27 08:40:48;;;;;;;2.97;1.05;;;11.70;94.00;;;;;;4954238;28;98799;-75
2023/03/27 08:43:44;;;;;;;5.38;1.20;;;11.00;93.30;;;;;;4953703;28;101814;-75
2023/03/27 08:46:20;;;;;;;3.85;1.15;;;10.50;94.10;;;;;;4937658;28;98590;-75
2023/03/27 08:48:55;;;;;;;3.78;1.15;;;10.10;95.50;;;;;;4970638;28;97765;-75
2023/03/27 08:51:29;;;;;;;4.03;1.17;;;9.70;96.70;;;;;;4953414;28;101797;-75
2023/03/27 08:54:07;;;;;;;2.15;1.02;;;9.30;96.60;;;;;;4953440;28;101460;-75
2023/03/27 08:56:36;;;;;;;6.03;1.38;;;9.00;97.00;;;;;;4969925;28;99301;-75
2023/03/27 08:59:10;;;;;;;2.92;1.00;;;8.60;98.40;;;;;;4953987;28;99148;-75
2023/03/27 09:02:09;;;;;;;4.32;1.13;;;8.50;98.50;;;;;;4937441;28;101496;-75
2023/03/27 09:04:48;;;;;;;2.63;0.85;;;8.40;98.10;;;;;;4953103;28;101561;-75
2023/03/27 09:07:36;;;;;;;1.00;0.73;;;8.10;98.50;;;;;;4969769;28;98719;-75
2023/03/27 09:10:30;;;;;;;3.25;1.23;;;8.00;98.80;;;;;;4969682;28;99215;-75
2023/03/27 09:13:21;;;;;;;1.20;0.70;;;7.90;99.00;;;;;;4952811;28;101596;-75
2023/03/27 09:16:11;;;;;;;3.45;1.00;;;7.80;99.80;;;;;;4953436;28;101495;-75
2023/03/27 09:18:59;;;;;;;2.53;1.20;;;7.80;99.90;;;;;;4953607;28;98852;-75
2023/03/27 09:21:38;;;;;;;4.38;1.33;;;7.90;99.70;;;;;;4953338;28;99808;-74
2023/03/27 09:24:21;;;;;;;4.80;2.00;;;8.00;99.90;;;;;;4952535;28;100988;-74
2023/03/27 09:27:28;;;;;;;4.65;1.20;;;8.20;99.90;;;;;;4952131;28;100827;-75
2023/03/27 09:30:17;;;;;;;4.30;1.45;;;8.50;99.90;;;;;;4953209;28;98693;-75
2023/03/27 09:33:04;;;;;;;5.15;1.10;;;8.70;99.90;;;;;;4953394;28;99055;-75
2023/03/27 09:35:34;;;;;;;2.42;1.23;;;8.70;99.90;;;;;;4952604;28;101575;-75
2023/03/27 09:38:08;;;;;;;4.32;1.40;;;8.50;99.50;;;;;;4968968;28;99244;-75
2023/03/27 09:40:48;;;;;;;3.38;0.90;;;8.50;99.90;;;;;;4953265;28;99097;-75
2023/03/27 09:43:25;;;;;;;4.40;1.50;;;8.50;99.90;;;;;;4969264;28;97849;-75
2023/03/27 09:45:58;;;;;;;2.65;0.90;;;8.80;99.90;;;;;;4968837;28;101483;-75
2023/03/27 09:48:27;;;;;;;4.30;1.25;;;9.00;99.60;;;;;;4936061;28;101737;-75
2023/03/27 09:50:55;;;;;;;1.80;0.93;;;9.00;99.50;;;;;;4969005;28;99296;-75
2023/03/27 09:53:57;;;;;;;4.13;1.17;;;9.20;99.90;;;;;;4954399;28;98531;-75
2023/03/27 09:56:28;;;;;;;2.88;0.85;;;9.10;98.10;;;;;;4968314;28;101659;-75
2023/03/27 09:58:59;;;;;;;1.88;0.85;;;8.80;97.80;;;;;;4968839;28;101543;-75
2023/03/27 10:01:28;;;;;;;2.63;0.60;;;8.60;97.00;;;;;;4952464;28;98689;-75
2023/03/27 10:04:11;;;;;;;1.55;0.73;;;8.50;97.80;;;;;;4952590;28;98505;-75
2023/03/27 10:06:44;;;;;;;2.75;0.90;;;8.60;98.00;;;;;;4952261;28;101548;-74
2023/03/27 10:09:31;;;;;;;3.65;0.95;;;8.70;98.10;;;;;;4952613;28;101121;-75
2023/03/27 10:12:28;;;;;;;4.00;1.63;;;9.10;98.30;;;;;;4937225;28;98623;-75
2023/03/27 10:14:55;;;;;;;1.30;0.73;;;9.20;97.20;;;;;;4949832;28;98591;-75
2023/03/27 10:17:30;;;;;;;1.55;0.80;;;9.20;96.80;;;;;;4951495;28;101945;-75
2023/03/27 10:20:09;;;;;;;2.10;0.80;;;9.30;96.00;;;;;;4951930;28;102106;-75
2023/03/27 10:22:50;;;;;;;2.55;0.75;;;9.20;94.80;;;;;;4952111;28;99231;-75
2023/03/27 10:25:28;;;;;;;;;;;9.10;94.30;;;;;;4952416;28;98567;-75
2023/03/27 10:28:26;;;;;;;0.70;0.70;;;9.10;95.50;;;;;;4954782;28;99361;-75
2023/03/27 10:31:24;;;;;;;3.63;1.00;;;9.00;95.80;;;;;;4952747;28;98546;-75
2023/03/27 10:33:59;;;;;;;2.80;0.73;;;9.20;96.40;;;;;;4952125;28;98603;-75
2023/03/27 10:36:46;;;;;;;2.78;0.90;;;9.20;96.20;;;;;;4952617;28;97679;-75
2023/03/27 10:39:16;;;;;;;2.30;0.85;;;9.30;96.60;;;;;;4951946;28;101193;-75
2023/03/27 10:42:06;;;;;;;2.75;0.60;;;9.30;95.20;;;;;;4937537;28;101111;-75
2023/03/27 10:44:36;;;;;;;3.42;0.77;;;9.20;95.70;;;;;;4951461;28;99280;-75
2023/03/27 10:47:14;;;;;;;2.80;0.80;;;9.10;95.60;;;;;;4951901;28;98589;-75
2023/03/27 10:49:52;;;;;;;3.58;0.70;;;9.00;96.10;;;;;;4951766;28;101950;-75
2023/03/27 10:52:41;;;;;;;1.95;0.85;;;9.10;95.90;;;;;;4951496;28;101484;-75
2023/03/27 10:55:33;;;;;;;3.40;1.10;;;8.90;95.30;;;;;;4968091;28;99003;-75
2023/03/27 10:58:19;;;;;;;2.35;0.90;;;9.20;96.30;;;;;;4952104;28;98659;-75
2023/03/27 11:00:59;;;;;;;2.85;1.02;;;9.40;96.40;;;;;;4951434;28;102003;-75
2023/03/27 11:03:37;;;;;;;1.55;0.60;;;9.30;95.60;;;;;;4968104;28;100953;-75
2023/03/27 11:06:12;;;;;;;2.65;0.82;;;9.00;95.70;;;;;;4951918;28;98765;-75
2023/03/27 11:09:08;;;;;;;1.75;0.77;;;8.90;96.60;;;;;;4967971;28;98592;-75
2023/03/27 11:11:52;;;;;;;1.88;0.90;;;8.80;95.40;;;;;;4950954;28;102459;-75
2023/03/27 11:14:42;;;;;;;3.05;0.82;;;8.90;95.80;;;;;;4951492;28;102018;-75
2023/03/27 11:17:17;;;;;;;3.78;0.75;;;9.20;96.30;;;;;;4951745;28;98596;-75
2023/03/27 11:20:05;;;;;;;1.98;0.60;;;9.40;95.00;;;;;;4952159;28;99131;-75
2023/03/27 11:22:41;;;;;;;1.27;0.70;;;9.50;93.60;;;;;;4952736;28;98960;-75
2023/03/27 11:25:34;;;;;;;4.13;0.90;;;9.50;92.60;;;;;;4951118;28;101661;-75
2023/03/27 11:28:52;;;;;;;2.17;0.60;;;9.80;94.40;;;;;;4951636;28;98510;-75
2023/03/27 11:31:27;;;;;;;2.45;1.08;;;10.00;94.20;;;;;;4920481;28;97938;-75
2023/03/27 11:34:04;;;;;;;1.10;0.85;;;10.30;93.80;;;;;;4967383;28;101783;-75
2023/03/27 11:36:48;;;;;;;1.88;0.85;;;10.40;93.90;;;;;;4967149;28;101171;-75
2023/03/27 11:39:43;;;;;;;3.45;0.80;;;10.20;94.50;;;;;;4967630;28;100085;-75
2023/03/27 11:42:17;;;;;;;2.00;0.90;;;9.80;93.90;;;;;;4951280;28;98574;-75
2023/03/27 11:44:47;;;;;;;3.10;0.70;;;9.70;92.90;;;;;;4967176;28;101638;-75
2023/03/27 11:47:45;;;;;;;3.00;0.85;;;9.70;92.90;;;;;;4967048;28;101366;-75
2023/03/27 11:50:32;;;;;;;4.15;1.02;;;9.80;93.70;;;;;;4951340;28;98594;-75
2023/03/27 11:53:11;;;;;;;0.85;0.63;;;9.90;93.60;;;;;;4951270;28;98587;-75
2023/03/27 11:56:30;;;;;;;1.43;0.90;;;9.90;92.30;;;;;;4962392;28;100139;-75
2023/03/27 11:59:30;;;;;;;2.53;1.15;;;10.10;91.90;;;;;;4951360;28;100999;-75
2023/03/27 12:02:26;;;;;;;5.07;1.40;;;10.20;92.30;;;;;;4951396;28;98575;-75
2023/03/27 12:05:21;;;;;;;2.17;1.23;;;9.80;96.30;;;;;;4952107;28;98627;-75
2023/03/27 12:08:03;;;;;;;2.35;0.90;;;8.60;99.90;;;;;;4954976;28;100045;-75
2023/03/27 12:10:37;;;;;;;1.95;0.82;;;7.70;99.90;;;;;;4970537;28;102183;-75
2023/03/27 12:13:30;;;;;;;1.65;0.88;;;7.30;99.90;;;;;;4954674;28;98592;-75
2023/03/27 12:16:34;;;;;;;2.55;0.70;;;7.30;99.90;;;;;;4968943;28;99044;-74
2023/03/27 12:19:21;;;;;;;2.17;0.90;;;7.10;99.90;;;;;;4926785;28;101795;-74
2023/03/27 12:22:52;;;;;;;2.60;0.80;;;7.20;99.90;;;;;;4947529;28;98865;-75
2023/03/27 12:26:02;;;;;;;2.90;1.02;;;7.30;99.90;;;;;;4932628;28;98736;-75
2023/03/27 12:29:06;;;;;;;2.22;0.90;;;7.40;99.90;;;;;;4954342;28;97891;-75
2023/03/27 12:32:32;;;;;;;3.85;0.70;;;7.70;99.90;;;;;;4963273;28;101277;-74
2023/03/27 12:35:09;;;;;;;2.08;0.80;;;7.90;99.90;;;;;;4939540;28;100148;-75
2023/03/27 12:38:04;;;;;;;1.20;0.68;;;8.10;99.90;;;;;;4938518;28;99234;-75
2023/03/27 12:40:36;;;;;;;2.88;0.90;;;8.50;99.90;;;;;;4937964;28;98644;-75
2023/03/27 12:43:26;;;;;;;4.07;1.00;;;8.80;99.90;;;;;;4954164;28;101523;-75
2023/03/27 12:46:22;;;;;;;3.40;0.80;;;9.20;98.90;;;;;;4953677;28;101224;-75
2023/03/27 12:49:04;;;;;;;4.28;1.17;;;9.50;98.40;;;;;;4937628;28;98595;-75
2023/03/27 12:52:03;;;;;;;4.70;1.08;;;9.60;96.40;;;;;;4954847;28;98549;-75
2023/03/27 12:55:33;;;;;;;4.30;1.10;;;9.50;95.10;;;;;;4950123;28;99121;-75
2023/03/27 12:58:03;;;;;;;7.38;1.17;;;9.10;93.70;;;;;;4953950;28;98671;-75
2023/03/27 13:00:58;;;;;;;3.22;1.05;;;9.00;94.50;;;;;;4955657;28;98752;-74
2023/03/27 13:04:10;;;;;;;4.57;0.90;;;9.10;95.10;;;;;;4953360;28;98613;-75
2023/03/27 13:07:03;;;;;;;2.47;1.40;;;9.10;93.70;;;;;;4952790;28;102522;-75
2023/03/27 13:10:44;;;;;;;1.27;1.10;;;9.20;94.30;;;;;;4950441;28;100881;-75
2023/03/27 13:13:38;;;;;;;3.30;1.08;;;9.00;94.70;;;;;;4937776;28;98596;-75
2023/03/27 13:16:21;;;;;;;2.80;0.90;;;9.00;94.20;;;;;;4937291;28;98591;-75
2023/03/27 13:19:08;;;;;;;3.10;0.80;;;9.10;94.30;;;;;;4969377;28;101330;-75
2023/03/27 13:22:14;;;;;;;2.67;1.30;;;9.10;93.40;;;;;;4938782;28;101219;-75
2023/03/27 13:25:06;;;;;;;2.90;0.80;;;8.80;93.60;;;;;;4953653;28;98572;-75
2023/03/27 13:28:01;;;;;;;2.60;1.00;;;8.70;94.30;;;;;;4952748;28;97899;-75
2023/03/27 13:30:50;;;;;;;1.67;0.82;;;8.60;93.90;;;;;;4937063;28;101318;-75
2023/03/27 13:34:03;;;;;;;4.95;0.80;;;8.60;94.60;;;;;;4953393;28;102160;-75
2023/03/27 13:36:30;;;;;;;3.72;1.00;;;8.60;93.90;;;;;;4952478;28;99194;-75
2023/03/27 13:39:04;;;;;;;6.03;1.23;;;8.80;95.00;;;;;;4936623;28;98572;-75
2023/03/27 13:41:44;;;;;;;2.58;0.82;;;8.90;95.10;;;;;;4952608;28;101492;-75
2023/03/27 13:44:25;;;;;;;3.03;0.88;;;9.00;94.30;;;;;;4952616;28;101386;-75
2023/03/27 13:47:27;;;;;;;2.58;0.90;;;9.10;94.20;;;;;;4968960;28;98585;-75
2023/03/27 13:50:30;;;;;;;3.53;1.10;;;9.10;94.60;;;;;;4952466;28;98626;-75
2023/03/27 13:53:35;;;;;;;4.82;1.30;;;9.20;95.80;;;;;;4928333;28;102084;-75